sensor_id;sensor_type;location;lat;lon;timestamp;temperature;humidity
13268;DHT22;6702;47.068;15.458;2022-08-19T00:01:58;22.10;97.30
13268;DHT22;6702;47.068;15.458;2022-08-19T00:05:02;22.10;97.40
13268;DHT22;6702;47.068;15.458;2022-08-19T00:08:07;22.00;97.30
13268;DHT22;6702;47.068;15.458;2022-08-19T00:11:11;22.00;97.50
13268;DHT22;6702;47.068;15.458;2022-08-19T00:14:27;22.00;97.40
13268;DHT22;6702;47.068;15.458;2022-08-19T00:17:33;22.00;97.50
13268;DHT22;6702;47.068;15.458;2022-08-19T00:20:42;22.00;97.50
13268;DHT22;6702;47.068;15.458;2022-08-19T00:23:47;22.00;97.40
13268;DHT22;6702;47.068;15.458;2022-08-19T00:26:51;22.00;97.50
13268;DHT22;6702;47.068;15.458;2022-08-19T00:29:54;22.00;97.40
13268;DHT22;6702;47.068;15.458;2022-08-19T00:32:57;22.00;97.50
13268;DHT22;6702;47.068;15.458;2022-08-19T00:36:00;22.00;97.50
13268;DHT22;6702;47.068;15.458;2022-08-19T00:39:06;22.00;97.50
13268;DHT22;6702;47.068;15.458;2022-08-19T00:42:09;21.80;97.50
13268;DHT22;6702;47.068;15.458;2022-08-19T00:45:15;21.80;97.60
13268;DHT22;6702;47.068;15.458;2022-08-19T00:48:19;21.70;97.80
13268;DHT22;6702;47.068;15.458;2022-08-19T00:51:22;21.60;97.90
13268;DHT22;6702;47.068;15.458;2022-08-19T00:54:30;21.50;98.40
13268;DHT22;6702;47.068;15.458;2022-08-19T00:57:38;21.50;98.50
13268;DHT22;6702;47.068;15.458;2022-08-19T01:00:42;21.60;98.50
13268;DHT22;6702;47.068;15.458;2022-08-19T01:03:45;21.60;98.80
13268;DHT22;6702;47.068;15.458;2022-08-19T01:06:59;21.70;98.70
13268;DHT22;6702;47.068;15.458;2022-08-19T01:10:06;21.70;98.70
13268;DHT22;6702;47.068;15.458;2022-08-19T01:13:10;21.70;98.60
13268;DHT22;6702;47.068;15.458;2022-08-19T01:16:14;21.60;98.60
13268;DHT22;6702;47.068;15.458;2022-08-19T01:19:24;21.60;98.80
13268;DHT22;6702;47.068;15.458;2022-08-19T01:22:31;21.50;99.00
13268;DHT22;6702;47.068;15.458;2022-08-19T01:25:42;21.50;99.20
13268;DHT22;6702;47.068;15.458;2022-08-19T01:28:50;21.60;99.00
13268;DHT22;6702;47.068;15.458;2022-08-19T01:31:54;21.50;99.10
13268;DHT22;6702;47.068;15.458;2022-08-19T01:34:57;21.50;99.20
13268;DHT22;6702;47.068;15.458;2022-08-19T01:38:09;21.40;99.30
13268;DHT22;6702;47.068;15.458;2022-08-19T01:41:13;21.40;99.70
13268;DHT22;6702;47.068;15.458;2022-08-19T01:44:16;21.40;99.70
13268;DHT22;6702;47.068;15.458;2022-08-19T01:47:22;21.40;99.50
13268;DHT22;6702;47.068;15.458;2022-08-19T01:50:25;21.50;99.50
13268;DHT22;6702;47.068;15.458;2022-08-19T01:53:31;21.50;99.50
13268;DHT22;6702;47.068;15.458;2022-08-19T01:56:34;21.60;99.40
13268;DHT22;6702;47.068;15.458;2022-08-19T01:59:39;21.60;99.20
13268;DHT22;6702;47.068;15.458;2022-08-19T02:02:43;21.70;99.10
13268;DHT22;6702;47.068;15.458;2022-08-19T02:05:46;21.70;99.10
13268;DHT22;6702;47.068;15.458;2022-08-19T02:08:50;21.60;99.00
13268;DHT22;6702;47.068;15.458;2022-08-19T02:11:58;21.60;99.00
13268;DHT22;6702;47.068;15.458;2022-08-19T02:15:02;21.60;99.10
13268;DHT22;6702;47.068;15.458;2022-08-19T02:18:06;21.60;99.20
13268;DHT22;6702;47.068;15.458;2022-08-19T02:21:10;21.60;99.10
13268;DHT22;6702;47.068;15.458;2022-08-19T02:24:15;21.60;99.10
13268;DHT22;6702;47.068;15.458;2022-08-19T02:27:18;21.70;99.00
13268;DHT22;6702;47.068;15.458;2022-08-19T02:30:22;21.60;99.00
13268;DHT22;6702;47.068;15.458;2022-08-19T02:33:26;21.60;99.20
13268;DHT22;6702;47.068;15.458;2022-08-19T02:36:30;21.60;99.10
13268;DHT22;6702;47.068;15.458;2022-08-19T02:39:35;21.60;99.00
13268;DHT22;6702;47.068;15.458;2022-08-19T02:42:37;21.60;99.10
13268;DHT22;6702;47.068;15.458;2022-08-19T02:45:41;21.60;99.00
13268;DHT22;6702;47.068;15.458;2022-08-19T02:48:44;21.60;99.00
13268;DHT22;6702;47.068;15.458;2022-08-19T02:51:47;21.60;99.10
13268;DHT22;6702;47.068;15.458;2022-08-19T02:54:52;21.50;99.00
13268;DHT22;6702;47.068;15.458;2022-08-19T02:57:55;21.50;99.00
13268;DHT22;6702;47.068;15.458;2022-08-19T03:00:58;21.50;98.90
13268;DHT22;6702;47.068;15.458;2022-08-19T03:04:04;21.50;99.10
13268;DHT22;6702;47.068;15.458;2022-08-19T03:07:07;21.50;99.10
13268;DHT22;6702;47.068;15.458;2022-08-19T03:10:13;21.60;99.10
13268;DHT22;6702;47.068;15.458;2022-08-19T03:13:17;21.60;99.10
13268;DHT22;6702;47.068;15.458;2022-08-19T03:16:22;21.60;99.40
13268;DHT22;6702;47.068;15.458;2022-08-19T03:19:25;21.60;99.10
13268;DHT22;6702;47.068;15.458;2022-08-19T03:22:29;21.50;99.10
13268;DHT22;6702;47.068;15.458;2022-08-19T03:25:38;21.50;99.20
13268;DHT22;6702;47.068;15.458;2022-08-19T03:28:42;21.50;99.30
13268;DHT22;6702;47.068;15.458;2022-08-19T03:31:52;21.60;99.30
13268;DHT22;6702;47.068;15.458;2022-08-19T03:34:56;21.60;99.10
13268;DHT22;6702;47.068;15.458;2022-08-19T03:37:59;21.60;99.00
13268;DHT22;6702;47.068;15.458;2022-08-19T03:41:05;21.60;99.00
13268;DHT22;6702;47.068;15.458;2022-08-19T03:44:09;21.60;99.00
13268;DHT22;6702;47.068;15.458;2022-08-19T03:47:18;21.50;99.00
13268;DHT22;6702;47.068;15.458;2022-08-19T03:50:22;21.50;99.20
13268;DHT22;6702;47.068;15.458;2022-08-19T03:53:27;21.50;99.40
13268;DHT22;6702;47.068;15.458;2022-08-19T03:56:34;21.40;99.90
13268;DHT22;6702;47.068;15.458;2022-08-19T03:59:38;21.30;99.90
13268;DHT22;6702;47.068;15.458;2022-08-19T04:02:41;21.10;99.90
13268;DHT22;6702;47.068;15.458;2022-08-19T04:06:09;21.00;99.90
13268;DHT22;6702;47.068;15.458;2022-08-19T04:09:13;20.90;99.90
13268;DHT22;6702;47.068;15.458;2022-08-19T04:12:17;21.00;99.90
13268;DHT22;6702;47.068;15.458;2022-08-19T04:15:22;21.00;99.90
13268;DHT22;6702;47.068;15.458;2022-08-19T04:18:25;21.10;99.90
13268;DHT22;6702;47.068;15.458;2022-08-19T04:21:28;21.10;99.90
13268;DHT22;6702;47.068;15.458;2022-08-19T04:24:32;21.20;99.90
13268;DHT22;6702;47.068;15.458;2022-08-19T04:27:37;21.20;99.90
13268;DHT22;6702;47.068;15.458;2022-08-19T04:30:42;21.30;99.90
13268;DHT22;6702;47.068;15.458;2022-08-19T04:33:46;21.40;99.90
13268;DHT22;6702;47.068;15.458;2022-08-19T04:36:50;21.40;99.90
13268;DHT22;6702;47.068;15.458;2022-08-19T04:39:53;21.50;99.90
13268;DHT22;6702;47.068;15.458;2022-08-19T04:43:15;21.70;99.90
13268;DHT22;6702;47.068;15.458;2022-08-19T04:46:18;21.90;99.90
13268;DHT22;6702;47.068;15.458;2022-08-19T04:49:41;22.00;99.50
13268;DHT22;6702;47.068;15.458;2022-08-19T04:52:44;22.10;99.20
13268;DHT22;6702;47.068;15.458;2022-08-19T04:55:47;22.10;99.00
13268;DHT22;6702;47.068;15.458;2022-08-19T04:58:53;22.20;99.00
13268;DHT22;6702;47.068;15.458;2022-08-19T05:01:56;22.20;99.00
13268;DHT22;6702;47.068;15.458;2022-08-19T05:04:59;22.30;98.80
13268;DHT22;6702;47.068;15.458;2022-08-19T05:08:03;22.30;98.70
13268;DHT22;6702;47.068;15.458;2022-08-19T05:11:09;22.30;98.20
13268;DHT22;6702;47.068;15.458;2022-08-19T05:14:16;22.60;98.10
13268;DHT22;6702;47.068;15.458;2022-08-19T05:17:19;22.60;97.90
13268;DHT22;6702;47.068;15.458;2022-08-19T05:20:29;22.60;97.70
13268;DHT22;6702;47.068;15.458;2022-08-19T05:23:50;22.70;97.40
13268;DHT22;6702;47.068;15.458;2022-08-19T05:26:54;22.70;97.40
13268;DHT22;6702;47.068;15.458;2022-08-19T05:29:59;22.80;97.30
13268;DHT22;6702;47.068;15.458;2022-08-19T05:33:03;22.80;97.20
13268;DHT22;6702;47.068;15.458;2022-08-19T05:36:07;22.90;97.10
13268;DHT22;6702;47.068;15.458;2022-08-19T05:39:12;23.10;96.90
13268;DHT22;6702;47.068;15.458;2022-08-19T05:42:16;23.20;96.60
13268;DHT22;6702;47.068;15.458;2022-08-19T05:45:23;23.30;96.00
13268;DHT22;6702;47.068;15.458;2022-08-19T05:48:26;23.50;95.90
13268;DHT22;6702;47.068;15.458;2022-08-19T05:51:30;23.60;95.20
13268;DHT22;6702;47.068;15.458;2022-08-19T05:54:33;23.70;94.90
13268;DHT22;6702;47.068;15.458;2022-08-19T05:57:37;23.80;94.80
13268;DHT22;6702;47.068;15.458;2022-08-19T06:00:42;23.90;94.70
13268;DHT22;6702;47.068;15.458;2022-08-19T06:03:46;23.90;94.40
13268;DHT22;6702;47.068;15.458;2022-08-19T06:06:51;23.80;94.20
13268;DHT22;6702;47.068;15.458;2022-08-19T06:09:55;23.80;94.10
13268;DHT22;6702;47.068;15.458;2022-08-19T06:13:01;23.90;94.00
13268;DHT22;6702;47.068;15.458;2022-08-19T06:16:07;23.90;94.10
13268;DHT22;6702;47.068;15.458;2022-08-19T06:19:13;23.90;93.90
13268;DHT22;6702;47.068;15.458;2022-08-19T06:22:17;23.90;93.70
13268;DHT22;6702;47.068;15.458;2022-08-19T06:25:20;24.00;93.60
13268;DHT22;6702;47.068;15.458;2022-08-19T06:28:23;24.00;93.50
13268;DHT22;6702;47.068;15.458;2022-08-19T06:31:29;24.00;93.50
13268;DHT22;6702;47.068;15.458;2022-08-19T06:34:34;24.10;93.50
13268;DHT22;6702;47.068;15.458;2022-08-19T06:37:37;24.20;93.40
13268;DHT22;6702;47.068;15.458;2022-08-19T06:40:44;24.40;93.40
13268;DHT22;6702;47.068;15.458;2022-08-19T06:43:47;24.70;93.10
13268;DHT22;6702;47.068;15.458;2022-08-19T06:46:56;25.10;92.10
13268;DHT22;6702;47.068;15.458;2022-08-19T06:50:00;25.40;91.50
13268;DHT22;6702;47.068;15.458;2022-08-19T06:53:06;25.50;91.20
13268;DHT22;6702;47.068;15.458;2022-08-19T06:56:09;25.70;90.70
13268;DHT22;6702;47.068;15.458;2022-08-19T06:59:15;25.80;90.40
13268;DHT22;6702;47.068;15.458;2022-08-19T07:02:20;25.80;90.10
13268;DHT22;6702;47.068;15.458;2022-08-19T07:05:28;25.70;90.00
13268;DHT22;6702;47.068;15.458;2022-08-19T07:08:31;25.60;89.00
13268;DHT22;6702;47.068;15.458;2022-08-19T07:11:35;25.40;89.10
13268;DHT22;6702;47.068;15.458;2022-08-19T07:14:39;25.30;89.50
13268;DHT22;6702;47.068;15.458;2022-08-19T07:17:43;25.20;90.30
13268;DHT22;6702;47.068;15.458;2022-08-19T07:21:02;25.10;90.90
13268;DHT22;6702;47.068;15.458;2022-08-19T07:24:10;25.10;91.40
13268;DHT22;6702;47.068;15.458;2022-08-19T07:27:14;25.10;91.60
13268;DHT22;6702;47.068;15.458;2022-08-19T07:30:17;25.10;92.00
13268;DHT22;6702;47.068;15.458;2022-08-19T07:33:22;25.00;93.00
13268;DHT22;6702;47.068;15.458;2022-08-19T07:36:29;24.90;93.00
13268;DHT22;6702;47.068;15.458;2022-08-19T07:39:35;24.80;93.80
13268;DHT22;6702;47.068;15.458;2022-08-19T07:42:39;24.70;93.30
13268;DHT22;6702;47.068;15.458;2022-08-19T07:45:43;24.60;94.40
13268;DHT22;6702;47.068;15.458;2022-08-19T07:48:48;24.60;94.70
13268;DHT22;6702;47.068;15.458;2022-08-19T07:51:54;24.50;94.90
13268;DHT22;6702;47.068;15.458;2022-08-19T07:54:58;24.40;95.20
13268;DHT22;6702;47.068;15.458;2022-08-19T07:58:05;24.30;93.60
13268;DHT22;6702;47.068;15.458;2022-08-19T08:01:10;24.20;93.40
13268;DHT22;6702;47.068;15.458;2022-08-19T08:04:15;24.10;93.90
13268;DHT22;6702;47.068;15.458;2022-08-19T08:07:36;24.10;94.20
13268;DHT22;6702;47.068;15.458;2022-08-19T08:10:57;24.00;94.80
13268;DHT22;6702;47.068;15.458;2022-08-19T08:14:01;24.10;95.80
13268;DHT22;6702;47.068;15.458;2022-08-19T08:17:06;24.10;96.60
13268;DHT22;6702;47.068;15.458;2022-08-19T08:20:13;24.00;96.90
13268;DHT22;6702;47.068;15.458;2022-08-19T08:23:17;24.10;97.40
13268;DHT22;6702;47.068;15.458;2022-08-19T08:26:27;24.10;99.10
13268;DHT22;6702;47.068;15.458;2022-08-19T08:29:35;24.00;99.90
13268;DHT22;6702;47.068;15.458;2022-08-19T08:32:39;24.10;99.90
13268;DHT22;6702;47.068;15.458;2022-08-19T08:35:44;24.00;99.90
13268;DHT22;6702;47.068;15.458;2022-08-19T08:38:48;23.90;99.90
13268;DHT22;6702;47.068;15.458;2022-08-19T08:41:54;23.90;99.90
13268;DHT22;6702;47.068;15.458;2022-08-19T08:45:02;23.70;99.90
13268;DHT22;6702;47.068;15.458;2022-08-19T08:48:14;23.60;99.90
13268;DHT22;6702;47.068;15.458;2022-08-19T08:51:29;23.70;99.90
13268;DHT22;6702;47.068;15.458;2022-08-19T08:54:40;23.70;99.90
13268;DHT22;6702;47.068;15.458;2022-08-19T08:57:59;23.80;99.90
13268;DHT22;6702;47.068;15.458;2022-08-19T09:01:03;23.90;99.90
13268;DHT22;6702;47.068;15.458;2022-08-19T09:04:07;24.10;99.90
13268;DHT22;6702;47.068;15.458;2022-08-19T09:07:25;24.30;99.90
13268;DHT22;6702;47.068;15.458;2022-08-19T09:10:39;24.40;99.90
13268;DHT22;6702;47.068;15.458;2022-08-19T09:13:52;24.40;99.90
13268;DHT22;6702;47.068;15.458;2022-08-19T09:16:59;24.40;99.90
13268;DHT22;6702;47.068;15.458;2022-08-19T09:20:10;24.50;99.90
13268;DHT22;6702;47.068;15.458;2022-08-19T09:23:16;24.60;99.90
13268;DHT22;6702;47.068;15.458;2022-08-19T09:26:27;24.70;99.90
13268;DHT22;6702;47.068;15.458;2022-08-19T09:29:51;24.80;99.90
13268;DHT22;6702;47.068;15.458;2022-08-19T09:32:55;25.00;99.90
13268;DHT22;6702;47.068;15.458;2022-08-19T09:36:06;25.20;99.90
13268;DHT22;6702;47.068;15.458;2022-08-19T09:39:11;25.30;99.90
13268;DHT22;6702;47.068;15.458;2022-08-19T09:42:17;25.70;99.90
13268;DHT22;6702;47.068;15.458;2022-08-19T09:45:31;26.20;99.50
13268;DHT22;6702;47.068;15.458;2022-08-19T09:48:35;26.90;98.20
13268;DHT22;6702;47.068;15.458;2022-08-19T09:51:39;27.20;97.20
13268;DHT22;6702;47.068;15.458;2022-08-19T09:54:43;27.40;96.50
13268;DHT22;6702;47.068;15.458;2022-08-19T09:57:53;27.50;96.10
13268;DHT22;6702;47.068;15.458;2022-08-19T10:00:57;27.50;95.90
13268;DHT22;6702;47.068;15.458;2022-08-19T10:04:01;27.40;95.80
13268;DHT22;6702;47.068;15.458;2022-08-19T10:07:20;27.10;96.60
13268;DHT22;6702;47.068;15.458;2022-08-19T10:10:38;26.80;96.60
13268;DHT22;6702;47.068;15.458;2022-08-19T10:13:44;26.60;97.10
13268;DHT22;6702;47.068;15.458;2022-08-19T10:16:47;26.50;97.20
13268;DHT22;6702;47.068;15.458;2022-08-19T10:19:51;26.40;97.20
13268;DHT22;6702;47.068;15.458;2022-08-19T10:22:56;26.20;97.30
13268;DHT22;6702;47.068;15.458;2022-08-19T10:26:03;26.10;97.40
13268;DHT22;6702;47.068;15.458;2022-08-19T10:29:08;26.00;98.30
13268;DHT22;6702;47.068;15.458;2022-08-19T10:32:11;26.00;98.60
13268;DHT22;6702;47.068;15.458;2022-08-19T10:35:15;26.00;98.90
13268;DHT22;6702;47.068;15.458;2022-08-19T10:38:22;25.90;99.30
13268;DHT22;6702;47.068;15.458;2022-08-19T10:41:35;25.90;99.30
13268;DHT22;6702;47.068;15.458;2022-08-19T10:44:39;25.90;99.60
13268;DHT22;6702;47.068;15.458;2022-08-19T10:47:42;26.10;99.70
13268;DHT22;6702;47.068;15.458;2022-08-19T10:50:46;26.40;99.60
13268;DHT22;6702;47.068;15.458;2022-08-19T10:54:06;26.90;98.80
13268;DHT22;6702;47.068;15.458;2022-08-19T10:57:15;27.10;97.50
13268;DHT22;6702;47.068;15.458;2022-08-19T11:00:17;26.90;97.40
13268;DHT22;6702;47.068;15.458;2022-08-19T11:03:20;26.90;97.20
13268;DHT22;6702;47.068;15.458;2022-08-19T11:06:24;27.00;97.50
13268;DHT22;6702;47.068;15.458;2022-08-19T11:09:27;27.30;96.80
13268;DHT22;6702;47.068;15.458;2022-08-19T11:12:37;27.30;96.00
13268;DHT22;6702;47.068;15.458;2022-08-19T11:15:41;27.30;96.00
13268;DHT22;6702;47.068;15.458;2022-08-19T11:18:47;27.20;96.70
13268;DHT22;6702;47.068;15.458;2022-08-19T11:21:52;27.40;96.60
13268;DHT22;6702;47.068;15.458;2022-08-19T11:25:00;27.70;96.10
13268;DHT22;6702;47.068;15.458;2022-08-19T11:28:05;27.90;95.90
13268;DHT22;6702;47.068;15.458;2022-08-19T11:31:11;27.90;95.00
13268;DHT22;6702;47.068;15.458;2022-08-19T11:34:19;27.80;93.50
13268;DHT22;6702;47.068;15.458;2022-08-19T11:37:22;27.70;93.10
13268;DHT22;6702;47.068;15.458;2022-08-19T11:40:25;27.70;93.30
13268;DHT22;6702;47.068;15.458;2022-08-19T11:43:30;27.60;93.40
13268;DHT22;6702;47.068;15.458;2022-08-19T11:46:38;27.60;93.40
13268;DHT22;6702;47.068;15.458;2022-08-19T11:49:41;27.70;93.30
13268;DHT22;6702;47.068;15.458;2022-08-19T11:52:45;28.00;92.50
13268;DHT22;6702;47.068;15.458;2022-08-19T11:55:49;28.40;91.10
13268;DHT22;6702;47.068;15.458;2022-08-19T11:58:55;28.40;88.20
13268;DHT22;6702;47.068;15.458;2022-08-19T12:01:59;28.60;88.10
13268;DHT22;6702;47.068;15.458;2022-08-19T12:05:02;28.90;87.10
13268;DHT22;6702;47.068;15.458;2022-08-19T12:08:11;29.20;84.70
13268;DHT22;6702;47.068;15.458;2022-08-19T12:11:14;29.50;82.00
13268;DHT22;6702;47.068;15.458;2022-08-19T12:14:19;29.90;80.10
13268;DHT22;6702;47.068;15.458;2022-08-19T12:17:22;30.10;78.50
13268;DHT22;6702;47.068;15.458;2022-08-19T12:20:25;30.00;75.60
13268;DHT22;6702;47.068;15.458;2022-08-19T12:23:28;29.90;74.30
13268;DHT22;6702;47.068;15.458;2022-08-19T12:26:32;29.80;72.40
13268;DHT22;6702;47.068;15.458;2022-08-19T12:29:56;29.70;74.40
13268;DHT22;6702;47.068;15.458;2022-08-19T12:33:00;29.90;73.60
13268;DHT22;6702;47.068;15.458;2022-08-19T12:36:05;30.10;72.30
13268;DHT22;6702;47.068;15.458;2022-08-19T12:39:08;30.20;69.90
13268;DHT22;6702;47.068;15.458;2022-08-19T12:42:14;29.90;71.20
13268;DHT22;6702;47.068;15.458;2022-08-19T12:45:21;29.60;70.50
13268;DHT22;6702;47.068;15.458;2022-08-19T12:48:24;29.30;71.90
13268;DHT22;6702;47.068;15.458;2022-08-19T12:51:34;29.30;72.10
13268;DHT22;6702;47.068;15.458;2022-08-19T12:54:37;29.40;70.60
13268;DHT22;6702;47.068;15.458;2022-08-19T12:57:41;29.70;71.00
13268;DHT22;6702;47.068;15.458;2022-08-19T13:00:45;29.70;66.40
13268;DHT22;6702;47.068;15.458;2022-08-19T13:03:49;29.40;66.70
13268;DHT22;6702;47.068;15.458;2022-08-19T13:06:53;29.40;66.90
13268;DHT22;6702;47.068;15.458;2022-08-19T13:09:57;29.60;67.40
13268;DHT22;6702;47.068;15.458;2022-08-19T13:13:01;29.70;66.90
13268;DHT22;6702;47.068;15.458;2022-08-19T13:16:06;29.40;68.00
13268;DHT22;6702;47.068;15.458;2022-08-19T13:19:09;29.40;67.90
13268;DHT22;6702;47.068;15.458;2022-08-19T13:22:13;29.50;68.30
13268;DHT22;6702;47.068;15.458;2022-08-19T13:25:17;29.50;67.50
13268;DHT22;6702;47.068;15.458;2022-08-19T13:28:21;29.40;67.30
13268;DHT22;6702;47.068;15.458;2022-08-19T13:31:33;29.30;67.00
13268;DHT22;6702;47.068;15.458;2022-08-19T13:34:53;29.40;67.60
13268;DHT22;6702;47.068;15.458;2022-08-19T13:37:57;29.50;67.90
13268;DHT22;6702;47.068;15.458;2022-08-19T13:41:05;29.60;67.20
13268;DHT22;6702;47.068;15.458;2022-08-19T13:44:14;29.50;67.00
13268;DHT22;6702;47.068;15.458;2022-08-19T13:47:21;29.40;67.30
13268;DHT22;6702;47.068;15.458;2022-08-19T13:50:25;29.50;68.30
13268;DHT22;6702;47.068;15.458;2022-08-19T13:53:30;29.50;68.00
13268;DHT22;6702;47.068;15.458;2022-08-19T13:56:33;29.70;66.10
13268;DHT22;6702;47.068;15.458;2022-08-19T13:59:37;29.80;64.90
13268;DHT22;6702;47.068;15.458;2022-08-19T14:02:41;29.90;63.50
13268;DHT22;6702;47.068;15.458;2022-08-19T14:05:45;29.80;64.70
13268;DHT22;6702;47.068;15.458;2022-08-19T14:08:48;29.70;65.40
13268;DHT22;6702;47.068;15.458;2022-08-19T14:11:52;29.50;65.80
13268;DHT22;6702;47.068;15.458;2022-08-19T14:14:55;29.30;65.50
13268;DHT22;6702;47.068;15.458;2022-08-19T14:17:59;29.20;65.80
13268;DHT22;6702;47.068;15.458;2022-08-19T14:21:02;29.10;66.10
13268;DHT22;6702;47.068;15.458;2022-08-19T14:24:06;29.00;66.80
13268;DHT22;6702;47.068;15.458;2022-08-19T14:27:10;28.90;66.90
13268;DHT22;6702;47.068;15.458;2022-08-19T14:30:19;29.00;66.70
13268;DHT22;6702;47.068;15.458;2022-08-19T14:33:24;28.90;65.50
13268;DHT22;6702;47.068;15.458;2022-08-19T14:36:31;28.90;66.20
13268;DHT22;6702;47.068;15.458;2022-08-19T14:39:40;28.80;67.20
13268;DHT22;6702;47.068;15.458;2022-08-19T14:42:43;28.60;68.80
13268;DHT22;6702;47.068;15.458;2022-08-19T14:45:47;28.60;69.80
13268;DHT22;6702;47.068;15.458;2022-08-19T14:48:52;28.60;69.20
13268;DHT22;6702;47.068;15.458;2022-08-19T14:51:57;28.80;68.90
13268;DHT22;6702;47.068;15.458;2022-08-19T14:55:00;29.00;68.80
13268;DHT22;6702;47.068;15.458;2022-08-19T14:58:08;29.10;67.70
13268;DHT22;6702;47.068;15.458;2022-08-19T15:01:30;29.10;67.10
13268;DHT22;6702;47.068;15.458;2022-08-19T15:04:35;29.20;67.30
13268;DHT22;6702;47.068;15.458;2022-08-19T15:07:39;29.50;65.60
13268;DHT22;6702;47.068;15.458;2022-08-19T15:10:42;29.50;65.70
13268;DHT22;6702;47.068;15.458;2022-08-19T15:13:45;29.50;66.00
13268;DHT22;6702;47.068;15.458;2022-08-19T15:16:49;29.50;66.00
13268;DHT22;6702;47.068;15.458;2022-08-19T15:19:53;29.40;65.80
13268;DHT22;6702;47.068;15.458;2022-08-19T15:22:56;29.50;65.90
13268;DHT22;6702;47.068;15.458;2022-08-19T15:26:00;29.50;66.00
13268;DHT22;6702;47.068;15.458;2022-08-19T15:29:04;29.40;65.60
13268;DHT22;6702;47.068;15.458;2022-08-19T15:32:07;29.30;65.40
13268;DHT22;6702;47.068;15.458;2022-08-19T15:35:12;29.20;66.00
13268;DHT22;6702;47.068;15.458;2022-08-19T15:38:15;29.00;66.30
13268;DHT22;6702;47.068;15.458;2022-08-19T15:41:27;28.80;67.10
13268;DHT22;6702;47.068;15.458;2022-08-19T15:44:31;28.70;68.80
13268;DHT22;6702;47.068;15.458;2022-08-19T15:47:35;28.60;69.70
13268;DHT22;6702;47.068;15.458;2022-08-19T15:50:40;28.40;68.60
13268;DHT22;6702;47.068;15.458;2022-08-19T15:53:43;28.30;69.20
13268;DHT22;6702;47.068;15.458;2022-08-19T15:56:47;28.30;70.10
13268;DHT22;6702;47.068;15.458;2022-08-19T16:00:08;28.20;70.50
13268;DHT22;6702;47.068;15.458;2022-08-19T16:03:29;28.10;70.70
13268;DHT22;6702;47.068;15.458;2022-08-19T16:06:53;28.00;70.80
13268;DHT22;6702;47.068;15.458;2022-08-19T16:09:56;27.90;70.90
13268;DHT22;6702;47.068;15.458;2022-08-19T16:13:19;27.80;71.90
13268;DHT22;6702;47.068;15.458;2022-08-19T16:16:24;27.60;72.30
13268;DHT22;6702;47.068;15.458;2022-08-19T16:19:34;27.50;73.30
13268;DHT22;6702;47.068;15.458;2022-08-19T16:22:40;27.50;73.90
13268;DHT22;6702;47.068;15.458;2022-08-19T16:25:43;27.40;74.40
13268;DHT22;6702;47.068;15.458;2022-08-19T16:28:46;27.40;75.20
13268;DHT22;6702;47.068;15.458;2022-08-19T16:31:50;27.40;76.00
13268;DHT22;6702;47.068;15.458;2022-08-19T16:34:55;27.30;76.20
13268;DHT22;6702;47.068;15.458;2022-08-19T16:37:59;27.20;76.80
13268;DHT22;6702;47.068;15.458;2022-08-19T16:41:03;27.10;77.50
13268;DHT22;6702;47.068;15.458;2022-08-19T16:44:09;27.00;77.40
13268;DHT22;6702;47.068;15.458;2022-08-19T16:47:12;26.90;77.50
13268;DHT22;6702;47.068;15.458;2022-08-19T16:50:16;26.90;78.20
13268;DHT22;6702;47.068;15.458;2022-08-19T16:53:31;26.90;78.10
13268;DHT22;6702;47.068;15.458;2022-08-19T16:56:35;26.80;78.50
13268;DHT22;6702;47.068;15.458;2022-08-19T16:59:38;26.90;78.60
13268;DHT22;6702;47.068;15.458;2022-08-19T17:02:49;26.80;78.90
13268;DHT22;6702;47.068;15.458;2022-08-19T17:05:56;26.80;79.10
13268;DHT22;6702;47.068;15.458;2022-08-19T17:09:01;26.80;81.00
13268;DHT22;6702;47.068;15.458;2022-08-19T17:12:05;26.70;81.80
13268;DHT22;6702;47.068;15.458;2022-08-19T17:15:08;26.60;83.70
13268;DHT22;6702;47.068;15.458;2022-08-19T17:18:12;26.60;86.50
13268;DHT22;6702;47.068;15.458;2022-08-19T17:21:15;26.60;86.80
13268;DHT22;6702;47.068;15.458;2022-08-19T17:24:19;26.60;87.30
13268;DHT22;6702;47.068;15.458;2022-08-19T17:27:23;26.50;89.00
13268;DHT22;6702;47.068;15.458;2022-08-19T17:30:26;26.40;90.30
13268;DHT22;6702;47.068;15.458;2022-08-19T17:33:29;26.40;91.40
13268;DHT22;6702;47.068;15.458;2022-08-19T17:36:32;26.30;92.50
13268;DHT22;6702;47.068;15.458;2022-08-19T17:39:37;26.20;93.20
13268;DHT22;6702;47.068;15.458;2022-08-19T17:42:41;26.10;94.00
13268;DHT22;6702;47.068;15.458;2022-08-19T17:45:44;26.00;94.20
13268;DHT22;6702;47.068;15.458;2022-08-19T17:48:50;26.00;94.70
13268;DHT22;6702;47.068;15.458;2022-08-19T17:51:55;25.80;95.40
13268;DHT22;6702;47.068;15.458;2022-08-19T17:55:01;25.70;96.80
13268;DHT22;6702;47.068;15.458;2022-08-19T17:58:05;25.60;97.70
13268;DHT22;6702;47.068;15.458;2022-08-19T18:01:12;25.40;98.30
13268;DHT22;6702;47.068;15.458;2022-08-19T18:04:18;25.40;98.80
13268;DHT22;6702;47.068;15.458;2022-08-19T18:07:21;25.40;99.50
13268;DHT22;6702;47.068;15.458;2022-08-19T18:10:28;25.40;99.70
13268;DHT22;6702;47.068;15.458;2022-08-19T18:13:36;25.40;99.90
13268;DHT22;6702;47.068;15.458;2022-08-19T18:16:39;25.30;99.90
13268;DHT22;6702;47.068;15.458;2022-08-19T18:19:42;25.20;99.90
13268;DHT22;6702;47.068;15.458;2022-08-19T18:22:47;25.10;99.90
13268;DHT22;6702;47.068;15.458;2022-08-19T18:25:52;25.00;99.90
13268;DHT22;6702;47.068;15.458;2022-08-19T18:28:55;24.90;99.90
13268;DHT22;6702;47.068;15.458;2022-08-19T18:31:58;24.90;99.90
13268;DHT22;6702;47.068;15.458;2022-08-19T18:35:04;24.90;99.90
13268;DHT22;6702;47.068;15.458;2022-08-19T18:38:13;24.90;99.90
13268;DHT22;6702;47.068;15.458;2022-08-19T18:41:35;24.80;99.90
13268;DHT22;6702;47.068;15.458;2022-08-19T18:44:56;24.80;99.90
13268;DHT22;6702;47.068;15.458;2022-08-19T18:48:18;24.70;99.90
13268;DHT22;6702;47.068;15.458;2022-08-19T18:51:39;24.70;99.90
13268;DHT22;6702;47.068;15.458;2022-08-19T18:54:43;24.60;99.90
13268;DHT22;6702;47.068;15.458;2022-08-19T18:57:49;24.60;99.90
13268;DHT22;6702;47.068;15.458;2022-08-19T19:00:54;24.60;99.90
13268;DHT22;6702;47.068;15.458;2022-08-19T19:04:00;24.60;99.90
13268;DHT22;6702;47.068;15.458;2022-08-19T19:07:04;24.60;99.90
13268;DHT22;6702;47.068;15.458;2022-08-19T19:10:08;24.50;99.90
13268;DHT22;6702;47.068;15.458;2022-08-19T19:13:12;24.60;99.90
13268;DHT22;6702;47.068;15.458;2022-08-19T19:16:17;24.60;99.90
13268;DHT22;6702;47.068;15.458;2022-08-19T19:19:25;24.60;99.90
13268;DHT22;6702;47.068;15.458;2022-08-19T19:22:28;24.60;99.90
13268;DHT22;6702;47.068;15.458;2022-08-19T19:25:32;24.50;99.90
13268;DHT22;6702;47.068;15.458;2022-08-19T19:28:53;24.50;99.90
13268;DHT22;6702;47.068;15.458;2022-08-19T19:31:56;24.50;99.90
13268;DHT22;6702;47.068;15.458;2022-08-19T19:34:59;24.50;99.90